createdAt,value
2022-11-09T00:00:45.982Z,93669.53
2022-11-09T00:03:13.126Z,93674.41
2022-11-09T00:05:39.885Z,93640.50
2022-11-09T00:08:07.830Z,93656.97
2022-11-09T00:10:34.720Z,93666.00
2022-11-09T00:13:02.569Z,93659.84
2022-11-09T00:15:29.219Z,93640.09
2022-11-09T00:17:55.628Z,93652.41
2022-11-09T00:20:22.044Z,93663.03
2022-11-09T00:22:49.604Z,93656.91
2022-11-09T00:25:21.928Z,93644.94
2022-11-09T00:27:48.330Z,93651.69
2022-11-09T00:30:15.391Z,93646.84
2022-11-09T00:32:41.842Z,93656.25
2022-11-09T00:35:08.714Z,93648.56
2022-11-09T00:37:35.475Z,93668.28
2022-11-09T00:40:01.967Z,93672.84
2022-11-09T00:42:28.378Z,93675.75
2022-11-09T00:44:54.919Z,93651.19
2022-11-09T00:47:21.354Z,93627.97
2022-11-09T00:49:51.891Z,93667.19
2022-11-09T00:52:18.261Z,93660.25
2022-11-09T00:54:44.652Z,93661.88
2022-11-09T00:57:12.649Z,93667.34
2022-11-09T00:59:39.071Z,93664.78
2022-11-09T01:02:05.481Z,93654.44
2022-11-09T01:04:31.901Z,93656.38
2022-11-09T01:06:58.321Z,93638.63
2022-11-09T01:09:24.812Z,93644.41
2022-11-09T01:11:51.253Z,93650.22
2022-11-09T01:14:17.688Z,93652.16
2022-11-09T01:16:44.160Z,93640.34
2022-11-09T01:19:11.836Z,93649.91
2022-11-09T01:21:38.302Z,93660.56
2022-11-09T01:24:05.674Z,93647.63
2022-11-09T01:26:37.519Z,93654.44
2022-11-09T01:29:03.918Z,93640.69
2022-11-09T01:31:30.457Z,93631.81
2022-11-09T01:33:56.923Z,93631.19
2022-11-09T01:36:24.583Z,93618.25
2022-11-09T01:38:51.651Z,93642.63
2022-11-09T01:41:22.357Z,93650.72
2022-11-09T01:44:10.688Z,93643.13
2022-11-09T01:46:54.697Z,93645.41
2022-11-09T01:49:37.292Z,93632.41
2022-11-09T01:52:13.389Z,93606.31
2022-11-09T01:54:44.561Z,93605.66
2022-11-09T01:57:16.076Z,93630.50
2022-11-09T01:59:50.159Z,93627.28
2022-11-09T02:02:16.973Z,93607.91
2022-11-09T02:04:52.154Z,93599.00
2022-11-09T02:07:19.726Z,93631.16
2022-11-09T02:10:04.090Z,93619.22
2022-11-09T02:12:34.401Z,93610.19
2022-11-09T02:15:03.833Z,93629.91
2022-11-09T02:17:30.462Z,93607.94
2022-11-09T02:20:00.612Z,93597.13
2022-11-09T02:22:27.023Z,93604.03
2022-11-09T02:24:56.271Z,93547.41
2022-11-09T02:27:23.904Z,93597.59
2022-11-09T02:29:50.394Z,93618.25
2022-11-09T02:32:24.059Z,93618.56
2022-11-09T02:34:50.456Z,93587.59
2022-11-09T02:37:42.081Z,93626.19
2022-11-09T02:40:14.741Z,93596.47
2022-11-09T02:42:41.241Z,93583.38
2022-11-09T02:45:08.279Z,93605.66
2022-11-09T02:47:34.683Z,93595.03
2022-11-09T02:50:01.102Z,93590.50
2022-11-09T02:52:27.622Z,93617.31
2022-11-09T02:54:54.540Z,93594.03
2022-11-09T02:57:21.101Z,93606.63
2022-11-09T02:59:47.513Z,93607.94
2022-11-09T03:02:14.015Z,93607.63
2022-11-09T03:04:40.454Z,93592.44
2022-11-09T03:07:08.120Z,93590.00
2022-11-09T03:09:34.643Z,93602.13
2022-11-09T03:12:21.035Z,93575.63
2022-11-09T03:14:47.447Z,93570.16
2022-11-09T03:17:14.146Z,93567.25
2022-11-09T03:19:40.554Z,93581.78
2022-11-09T03:22:06.993Z,93590.50
2022-11-09T03:24:33.437Z,93579.84
2022-11-09T03:26:59.839Z,93587.28
2022-11-09T03:29:27.329Z,93588.38
2022-11-09T03:31:53.737Z,93589.84
2022-11-09T03:34:20.136Z,93577.75
2022-11-09T03:36:46.563Z,93588.22
2022-11-09T03:39:12.956Z,93595.34
2022-11-09T03:41:39.358Z,93577.91
2022-11-09T03:44:05.956Z,93587.59
2022-11-09T03:46:32.444Z,93592.75
2022-11-09T03:48:58.969Z,93577.59
2022-11-09T03:51:25.388Z,93579.22
2022-11-09T03:53:51.838Z,93593.91
2022-11-09T03:56:18.339Z,93576.31
2022-11-09T03:58:44.784Z,93585.66
2022-11-09T04:01:11.358Z,93603.41
2022-11-09T04:03:44.795Z,93613.25
2022-11-09T04:06:11.249Z,93601.16
2022-11-09T04:08:37.687Z,93602.28
2022-11-09T04:11:04.082Z,93599.19
2022-11-09T04:13:30.515Z,93613.75
2022-11-09T04:15:56.887Z,93605.19
2022-11-09T04:18:23.297Z,93605.03
2022-11-09T04:20:49.705Z,93635.06
2022-11-09T04:23:16.368Z,93622.47
2022-11-09T04:25:43.255Z,93607.63
2022-11-09T04:28:12.136Z,93620.81
2022-11-09T04:30:38.922Z,93610.97
2022-11-09T04:33:05.743Z,93620.78
2022-11-09T04:35:33.458Z,93607.91
2022-11-09T04:38:06.693Z,93623.56
2022-11-09T04:40:34.879Z,93625.19
2022-11-09T04:43:03.053Z,93623.69
2022-11-09T04:45:29.767Z,93635.97
2022-11-09T04:48:01.359Z,93641.31
2022-11-09T04:50:28.840Z,93616.63
2022-11-09T04:52:56.007Z,93616.28
2022-11-09T04:55:22.409Z,93625.97
2022-11-09T04:57:48.832Z,93621.44
2022-11-09T05:00:15.630Z,93626.47
2022-11-09T05:02:44.095Z,93643.13
2022-11-09T05:05:10.484Z,93660.22
2022-11-09T05:07:37.545Z,93671.84
2022-11-09T05:10:04.129Z,93671.19
2022-11-09T05:12:30.621Z,93675.41
2022-11-09T05:14:57.063Z,93666.50
2022-11-09T05:17:23.486Z,93673.91
2022-11-09T05:19:57.128Z,93654.38
2022-11-09T05:22:42.049Z,93646.25
2022-11-09T05:25:08.840Z,93670.22
2022-11-09T05:27:35.980Z,93697.31
2022-11-09T05:30:02.454Z,93678.09
2022-11-09T05:32:28.848Z,93678.59
2022-11-09T05:34:55.279Z,93669.56
2022-11-09T05:37:22.272Z,93676.94
2022-11-09T05:39:48.877Z,93675.66
2022-11-09T05:42:15.274Z,93680.13
2022-11-09T05:44:41.691Z,93692.75
2022-11-09T05:47:08.113Z,93710.50
2022-11-09T05:49:34.593Z,93684.34
2022-11-09T05:52:01.011Z,93697.16
2022-11-09T05:54:27.430Z,93711.47
2022-11-09T05:56:53.903Z,93696.75
2022-11-09T05:59:20.314Z,93702.59
2022-11-09T06:01:46.732Z,93714.50
2022-11-09T06:04:16.419Z,93719.53
2022-11-09T06:06:43.697Z,93688.66
2022-11-09T06:09:10.192Z,93716.91
2022-11-09T06:11:36.642Z,93702.78
2022-11-09T06:14:03.273Z,93717.97
2022-11-09T06:16:29.826Z,93727.75
2022-11-09T06:18:56.319Z,93734.47
2022-11-09T06:21:23.382Z,93746.84
2022-11-09T06:23:49.830Z,93736.88
2022-11-09T06:26:16.293Z,93732.38
2022-11-09T06:28:42.837Z,93740.13
2022-11-09T06:31:13.059Z,93729.28
2022-11-09T06:33:39.518Z,93741.47
2022-11-09T06:36:06.297Z,93748.16
2022-11-09T06:38:32.913Z,93764.75
2022-11-09T06:41:00.288Z,93718.59
2022-11-09T06:43:27.458Z,93754.06
2022-11-09T06:45:54.375Z,93726.66
2022-11-09T06:48:21.278Z,93745.41
2022-11-09T06:50:47.759Z,93726.94
2022-11-09T06:53:16.500Z,93761.25
2022-11-09T06:55:47.425Z,93759.41
2022-11-09T06:58:17.037Z,93757.88
2022-11-09T07:00:44.110Z,93750.88
2022-11-09T07:03:15.003Z,93771.19
2022-11-09T07:05:41.748Z,93775.91
2022-11-09T07:08:08.183Z,93761.16
2022-11-09T07:10:34.624Z,93766.00
2022-11-09T07:13:03.174Z,93796.81
2022-11-09T07:15:29.890Z,93787.84
2022-11-09T07:17:58.051Z,93783.72
2022-11-09T07:20:24.887Z,93791.16
2022-11-09T07:22:51.888Z,93800.13
2022-11-09T07:25:19.558Z,93782.56
2022-11-09T07:27:46.366Z,93768.78
2022-11-09T07:30:13.439Z,93767.66
2022-11-09T07:33:07.987Z,93806.84
2022-11-09T07:35:27.501Z,93793.81
2022-11-09T07:37:54.014Z,93770.41
2022-11-09T07:40:20.547Z,93792.66
2022-11-09T07:42:46.987Z,93799.63
2022-11-09T07:45:13.472Z,93781.47
2022-11-09T07:47:39.902Z,93780.03
2022-11-09T07:50:06.671Z,93782.78
2022-11-09T07:52:33.124Z,93775.97
2022-11-09T07:54:59.535Z,93793.56
2022-11-09T07:57:25.951Z,93782.19
2022-11-09T07:59:53.555Z,93775.81
2022-11-09T08:02:20.026Z,93772.94
2022-11-09T08:04:46.490Z,93778.88
2022-11-09T08:07:12.933Z,93776.22
2022-11-09T08:09:39.461Z,93770.19
2022-11-09T08:12:06.100Z,93768.44
2022-11-09T08:14:33.011Z,93772.72
2022-11-09T08:16:59.474Z,93779.41
2022-11-09T08:19:25.898Z,93777.78
2022-11-09T08:21:57.206Z,93808.88
2022-11-09T08:24:24.005Z,93783.78
2022-11-09T08:26:50.465Z,93711.56
2022-11-09T08:29:16.964Z,93773.81
2022-11-09T08:31:43.398Z,93785.97
2022-11-09T08:34:14.303Z,93783.91
2022-11-09T08:36:41.063Z,93801.66
2022-11-09T08:39:07.598Z,93774.41
2022-11-09T08:41:35.239Z,93774.41
2022-11-09T08:44:01.822Z,93770.22
2022-11-09T08:46:28.294Z,93785.31
2022-11-09T08:48:54.720Z,93776.88
2022-11-09T08:51:21.150Z,93778.88
2022-11-09T08:53:48.651Z,93766.81
2022-11-09T08:56:18.394Z,93792.50
2022-11-09T08:58:45.607Z,93771.19
2022-11-09T09:01:17.048Z,93766.56
2022-11-09T09:03:43.929Z,93774.00
2022-11-09T09:06:10.357Z,93765.34
2022-11-09T09:08:36.771Z,93766.28
2022-11-09T09:11:06.709Z,93792.78
2022-11-09T09:13:33.526Z,93795.47
2022-11-09T09:16:12.687Z,93784.22
2022-11-09T09:18:39.102Z,93781.03
2022-11-09T09:21:07.622Z,93782.50
2022-11-09T09:23:34.170Z,93792.63
2022-11-09T09:26:00.686Z,93777.06
2022-11-09T09:28:27.254Z,93756.47
2022-11-09T09:30:54.139Z,93766.06
2022-11-09T09:33:21.910Z,93795.75
2022-11-09T09:35:51.967Z,93744.56
2022-11-09T09:38:29.963Z,93790.56
2022-11-09T09:41:02.974Z,93775.69
2022-11-09T09:43:47.678Z,93802.91
2022-11-09T09:46:19.600Z,93769.00
2022-11-09T09:48:53.395Z,93780.44
2022-11-09T09:51:35.022Z,93770.72
2022-11-09T09:54:16.887Z,93791.97
2022-11-09T09:56:47.143Z,93791.53
2022-11-09T09:59:18.650Z,93805.75
2022-11-09T10:01:45.799Z,93808.84
2022-11-09T10:04:28.741Z,93789.63
2022-11-09T10:07:24.561Z,93789.88
2022-11-09T10:10:20.307Z,93793.13
2022-11-09T10:13:16.588Z,93785.28
2022-11-09T10:15:59.399Z,93786.16
2022-11-09T10:18:47.761Z,93757.69
2022-11-09T10:21:34.581Z,93780.69
2022-11-09T10:24:58.641Z,93779.84
2022-11-09T10:27:36.299Z,93768.34
2022-11-09T10:30:14.969Z,93770.09
2022-11-09T10:32:45.577Z,93758.16
2022-11-09T10:35:24.862Z,93767.25
2022-11-09T10:37:52.452Z,93728.97
2022-11-09T10:40:27.961Z,93761.09
2022-11-09T10:42:59.367Z,93750.56
2022-11-09T10:45:29.532Z,93745.34
2022-11-09T10:47:56.054Z,93720.16
2022-11-09T10:50:46.784Z,93742.25
2022-11-09T10:53:25.460Z,93740.28
2022-11-09T10:55:57.767Z,93747.84
2022-11-09T10:58:37.592Z,93738.44
2022-11-09T11:01:16.283Z,93733.28
2022-11-09T11:03:50.174Z,93739.22
2022-11-09T11:06:28.524Z,93734.56
2022-11-09T11:08:58.025Z,93733.59
2022-11-09T11:11:34.994Z,93720.56
2022-11-09T11:14:11.701Z,93728.38
2022-11-09T11:16:39.640Z,93723.09
2022-11-09T11:19:08.690Z,93734.41
2022-11-09T11:21:35.153Z,93706.84
2022-11-09T11:24:18.052Z,93724.63
2022-11-09T11:26:50.496Z,93719.47
2022-11-09T11:30:00.563Z,93712.97
2022-11-09T11:32:27.207Z,93702.44
2022-11-09T11:35:00.364Z,93690.84
2022-11-09T11:37:37.856Z,93709.97
2022-11-09T11:40:15.938Z,93704.25
2022-11-09T11:43:07.542Z,93703.47
2022-11-09T11:45:42.104Z,93701.22
2022-11-09T11:48:47.081Z,93682.94
2022-11-09T11:51:23.259Z,93693.88
2022-11-09T11:54:25.276Z,93696.97
2022-11-09T11:57:33.193Z,93701.03
2022-11-09T12:00:18.089Z,93692.41
2022-11-09T12:02:48.781Z,93695.94
2022-11-09T12:05:43.404Z,93691.47
2022-11-09T12:08:16.041Z,93696.28
2022-11-09T12:10:56.080Z,93681.84
2022-11-09T12:13:31.574Z,93672.78
2022-11-09T12:16:10.808Z,93667.34
2022-11-09T12:18:43.055Z,93658.88
2022-11-09T12:21:41.374Z,93653.63
2022-11-09T12:24:26.465Z,93665.34
2022-11-09T12:27:31.521Z,93660.53
2022-11-09T12:30:12.760Z,93640.69
2022-11-09T12:32:51.409Z,93657.66
2022-11-09T12:35:27.071Z,93652.38
2022-11-09T12:38:10.289Z,93646.31
2022-11-09T12:40:48.726Z,93628.59
2022-11-09T12:43:31.804Z,93631.94
2022-11-09T12:46:00.526Z,93644.88
2022-11-09T12:48:30.831Z,93625.25
2022-11-09T12:51:02.944Z,93627.47
2022-11-09T12:53:36.547Z,93619.66
2022-11-09T12:56:10.516Z,93611.94
2022-11-09T12:58:39.008Z,93628.59
2022-11-09T13:01:10.699Z,93636.28
2022-11-09T13:03:40.499Z,93627.63
2022-11-09T13:06:16.613Z,93608.06
2022-11-09T13:08:55.804Z,93612.47
2022-11-09T13:11:37.791Z,93632.91
2022-11-09T13:14:22.239Z,93645.72
2022-11-09T13:16:55.868Z,93627.03
2022-11-09T13:19:34.450Z,93642.97
2022-11-09T13:22:02.246Z,93614.38
2022-11-09T13:24:31.766Z,93639.63
2022-11-09T13:27:03.422Z,93629.88
2022-11-09T13:29:55.303Z,93639.59
2022-11-09T13:32:26.645Z,93644.41
2022-11-09T13:35:03.528Z,93634.34
2022-11-09T13:37:42.150Z,93640.41
2022-11-09T13:40:31.734Z,93641.34
2022-11-09T13:43:25.530Z,93643.50
2022-11-09T13:45:58.502Z,93620.09
2022-11-09T13:48:34.689Z,93642.78
2022-11-09T13:51:05.853Z,93636.56
2022-11-09T13:53:38.667Z,93653.97
2022-11-09T13:56:27.456Z,93649.28
2022-11-09T13:59:00.590Z,93631.41
2022-11-09T14:01:52.840Z,93660.94
2022-11-09T14:04:36.356Z,93663.09
2022-11-09T14:07:05.014Z,93672.28
2022-11-09T14:10:07.019Z,93673.06
2022-11-09T14:12:51.904Z,93677.09
2022-11-09T14:15:30.763Z,93678.22
2022-11-09T14:18:34.823Z,93680.97
2022-11-09T14:21:15.173Z,93675.47
2022-11-09T14:23:41.913Z,93684.75
2022-11-09T14:26:10.306Z,93687.38
2022-11-09T14:28:37.310Z,93671.84
2022-11-09T14:31:03.741Z,93647.03
2022-11-09T14:33:34.769Z,93672.53
2022-11-09T14:36:04.243Z,93690.13
2022-11-09T14:38:36.341Z,93676.41
2022-11-09T14:41:03.781Z,93691.88
2022-11-09T14:43:38.687Z,93699.66
2022-11-09T14:46:14.333Z,93700.25
2022-11-09T14:48:49.697Z,93694.06
2022-11-09T14:51:17.692Z,93697.06
2022-11-09T14:53:44.596Z,93695.91
2022-11-09T14:56:15.175Z,93708.16
2022-11-09T14:58:44.115Z,93708.72
2022-11-09T15:01:20.087Z,93710.09
2022-11-09T15:04:06.808Z,93710.06
2022-11-09T15:06:34.264Z,93714.03
2022-11-09T15:09:08.150Z,93684.44
2022-11-09T15:11:37.199Z,93689.19
2022-11-09T15:14:26.470Z,93716.44
2022-11-09T15:17:05.108Z,93717.59
2022-11-09T15:19:48.251Z,93729.06
2022-11-09T15:22:42.539Z,93731.84
2022-11-09T15:25:23.453Z,93734.22
2022-11-09T15:28:09.550Z,93733.25
2022-11-09T15:31:07.011Z,93747.69
2022-11-09T15:33:45.563Z,93748.84
2022-11-09T15:36:35.054Z,93739.09
2022-11-09T15:39:19.640Z,93756.38
2022-11-09T15:41:46.141Z,93730.22
2022-11-09T15:44:14.313Z,93757.31
2022-11-09T15:46:49.995Z,93767.97
2022-11-09T15:49:28.030Z,93769.09
2022-11-09T15:51:55.208Z,93782.28
2022-11-09T15:54:23.279Z,93772.41
2022-11-09T15:56:51.102Z,93758.34
2022-11-09T15:59:23.479Z,93779.94
2022-11-09T16:01:50.003Z,93783.13
2022-11-09T16:04:16.476Z,93783.75
2022-11-09T16:06:46.559Z,93764.22
2022-11-09T16:09:13.279Z,93776.13
2022-11-09T16:11:39.715Z,93773.09
2022-11-09T16:14:06.175Z,93781.41
2022-11-09T16:16:32.642Z,93789.91
2022-11-09T16:18:59.575Z,93790.44
2022-11-09T16:21:26.096Z,93788.91
2022-11-09T16:23:58.110Z,93794.56
2022-11-09T16:26:25.084Z,93787.56
2022-11-09T16:28:51.482Z,93796.25
2022-11-09T16:31:25.255Z,93813.25
2022-11-09T16:34:01.573Z,93811.91
2022-11-09T16:36:28.700Z,93805.91
2022-11-09T16:38:56.606Z,93805.91
2022-11-09T16:41:24.306Z,93810.75
2022-11-09T16:43:55.095Z,93832.53
2022-11-09T16:46:25.161Z,93830.13
2022-11-09T16:48:53.085Z,93820.47
2022-11-09T16:51:19.722Z,93820.97
2022-11-09T16:53:46.158Z,93829.00
2022-11-09T16:56:13.474Z,93844.13
2022-11-09T16:58:41.962Z,93840.31
2022-11-09T17:01:12.442Z,93859.63
2022-11-09T17:03:39.855Z,93856.03
2022-11-09T17:06:10.966Z,93865.69
2022-11-09T17:08:39.235Z,93870.13
2022-11-09T17:11:14.947Z,93872.91
2022-11-09T17:13:41.525Z,93866.09
2022-11-09T17:16:11.038Z,93859.25
2022-11-09T17:18:40.560Z,93892.72
2022-11-09T17:21:12.037Z,93900.34
2022-11-09T17:23:39.166Z,93894.69
2022-11-09T17:26:07.171Z,93898.75
2022-11-09T17:28:35.221Z,93885.88
2022-11-09T17:31:15.370Z,93903.38
2022-11-09T17:33:42.250Z,93912.44
2022-11-09T17:36:13.933Z,93915.25
2022-11-09T17:38:40.683Z,93905.19
2022-11-09T17:41:14.489Z,93926.13
2022-11-09T17:43:42.759Z,93888.66
2022-11-09T17:46:16.193Z,93926.91
2022-11-09T17:48:46.759Z,93933.38
2022-11-09T17:51:15.115Z,93918.88
2022-11-09T17:53:41.998Z,93936.38
2022-11-09T17:56:09.955Z,93942.63
2022-11-09T17:58:41.443Z,93933.78
2022-11-09T18:01:14.068Z,93938.81
2022-11-09T18:03:47.881Z,93941.41
2022-11-09T18:06:20.388Z,93915.59
2022-11-09T18:08:59.231Z,93939.38
2022-11-09T18:11:34.109Z,93920.03
2022-11-09T18:14:01.028Z,93946.63
2022-11-09T18:16:28.202Z,93944.25
2022-11-09T18:19:02.100Z,93947.06
2022-11-09T18:21:28.661Z,93950.28
2022-11-09T18:23:55.504Z,93911.59
2022-11-09T18:26:21.992Z,93940.16
2022-11-09T18:28:48.506Z,93937.00
2022-11-09T18:31:15.010Z,93916.44
2022-11-09T18:33:42.791Z,93960.94
2022-11-09T18:36:15.600Z,93969.22
2022-11-09T18:38:43.720Z,93972.03
2022-11-09T18:41:14.129Z,93939.59
2022-11-09T18:43:41.820Z,93970.19
2022-11-09T18:46:10.904Z,93973.22
2022-11-09T18:48:37.674Z,93938.63
2022-11-09T18:51:05.843Z,93983.28
2022-11-09T18:53:38.294Z,93947.81
2022-11-09T18:56:08.296Z,93974.81
2022-11-09T18:58:35.097Z,93964.78
2022-11-09T19:01:06.718Z,93976.03
2022-11-09T19:03:34.081Z,93952.44
2022-11-09T19:06:06.229Z,93977.97
2022-11-09T19:08:51.330Z,93966.69
2022-11-09T19:11:18.058Z,93965.06
2022-11-09T19:13:44.512Z,93961.47
2022-11-09T19:16:13.103Z,93973.41
2022-11-09T19:18:40.045Z,93961.09
2022-11-09T19:21:17.927Z,93987.28
2022-11-09T19:23:44.342Z,93992.53
2022-11-09T19:26:17.469Z,93979.63
2022-11-09T19:28:43.944Z,93992.16
2022-11-09T19:31:15.554Z,94007.22
2022-11-09T19:33:42.123Z,93973.47
2022-11-09T19:36:29.176Z,93998.88
2022-11-09T19:38:56.299Z,93990.81
2022-11-09T19:41:25.213Z,94013.00
2022-11-09T19:43:54.406Z,94013.38
2022-11-09T19:46:21.007Z,94007.31
2022-11-09T19:48:47.714Z,94015.84
2022-11-09T19:51:16.564Z,94030.09
2022-11-09T19:53:49.566Z,94034.72
2022-11-09T19:56:16.075Z,94015.03
2022-11-09T19:58:42.736Z,94013.75
2022-11-09T20:01:13.337Z,94013.34
2022-11-09T20:03:39.840Z,94005.72
2022-11-09T20:06:07.034Z,94030.66
2022-11-09T20:08:36.761Z,94026.84
2022-11-09T20:11:34.814Z,94041.69
2022-11-09T20:14:01.435Z,94015.34
2022-11-09T20:16:28.005Z,94017.34
2022-11-09T20:18:55.770Z,94023.84
2022-11-09T20:21:22.168Z,94027.41
2022-11-09T20:23:53.537Z,94057.97
2022-11-09T20:26:20.026Z,94030.97
2022-11-09T20:28:46.482Z,94035.00
2022-11-09T20:31:15.882Z,94050.78
2022-11-09T20:33:42.819Z,94054.44
2022-11-09T20:36:14.790Z,94033.03
2022-11-09T20:38:41.697Z,94050.72
2022-11-09T20:41:10.943Z,94066.81
2022-11-09T20:43:37.965Z,94066.78
2022-11-09T20:46:16.007Z,94074.47
2022-11-09T20:48:58.911Z,94044.16
2022-11-09T20:51:26.005Z,94071.63
2022-11-09T20:53:52.507Z,94066.00
2022-11-09T20:56:20.234Z,94084.06
2022-11-09T20:58:47.159Z,94062.16
2022-11-09T21:01:26.800Z,94070.78
2022-11-09T21:04:01.837Z,94090.97
2022-11-09T21:06:31.286Z,94074.03
2022-11-09T21:09:00.306Z,94093.84
2022-11-09T21:11:35.831Z,94082.19
2022-11-09T21:14:03.318Z,94106.22
2022-11-09T21:16:29.739Z,94095.41
2022-11-09T21:18:57.230Z,94089.28
2022-11-09T21:21:25.182Z,94070.44
2022-11-09T21:24:10.406Z,94104.28
2022-11-09T21:26:55.140Z,94089.75
2022-11-09T21:29:42.437Z,94115.94
2022-11-09T21:32:11.020Z,94096.53
2022-11-09T21:34:37.739Z,94128.28
2022-11-09T21:37:04.910Z,94117.44
2022-11-09T21:39:32.105Z,94123.13
2022-11-09T21:41:58.691Z,94104.84
2022-11-09T21:44:27.249Z,94133.28
2022-11-09T21:46:53.675Z,94112.25
2022-11-09T21:49:20.207Z,94109.00
2022-11-09T21:51:47.346Z,94116.59
2022-11-09T21:54:13.827Z,94116.66
2022-11-09T21:56:40.470Z,94121.28
2022-11-09T21:59:07.077Z,94113.38
2022-11-09T22:01:33.745Z,94129.88
2022-11-09T22:04:00.464Z,94141.56
2022-11-09T22:06:27.339Z,94119.59
2022-11-09T22:08:53.960Z,94125.06
2022-11-09T22:11:41.592Z,94111.53
2022-11-09T22:14:37.594Z,94143.56
2022-11-09T22:17:06.004Z,94117.38
2022-11-09T22:19:52.203Z,94121.00
2022-11-09T22:22:19.001Z,94140.75
2022-11-09T22:24:46.285Z,94123.78
2022-11-09T22:27:12.696Z,94138.28
2022-11-09T22:29:39.287Z,94147.22
2022-11-09T22:32:06.444Z,94147.22
2022-11-09T22:34:33.254Z,94163.69
2022-11-09T22:36:59.663Z,94148.28
2022-11-09T22:39:26.142Z,94126.50
2022-11-09T22:41:52.650Z,94141.81
2022-11-09T22:44:19.238Z,94167.19
2022-11-09T22:46:45.716Z,94166.03
2022-11-09T22:49:12.399Z,94149.88
2022-11-09T22:51:38.833Z,94161.16
2022-11-09T22:54:05.530Z,94138.97
2022-11-09T22:56:31.952Z,94162.31
2022-11-09T22:58:58.366Z,94155.84
2022-11-09T23:01:25.001Z,94166.84
2022-11-09T23:03:53.748Z,94160.31
2022-11-09T23:06:22.359Z,94166.78
2022-11-09T23:08:49.512Z,94153.34
2022-11-09T23:11:19.156Z,94134.53
2022-11-09T23:13:51.915Z,94169.56
2022-11-09T23:16:21.576Z,94174.81
2022-11-09T23:18:54.202Z,94140.97
2022-11-09T23:21:28.206Z,94170.00
2022-11-09T23:23:57.571Z,94175.09
2022-11-09T23:26:24.714Z,94173.28
2022-11-09T23:28:51.350Z,94157.56
2022-11-09T23:31:23.510Z,94179.34
2022-11-09T23:33:51.894Z,94151.50
2022-11-09T23:36:19.459Z,94164.59
2022-11-09T23:38:46.699Z,94161.19
2022-11-09T23:41:14.708Z,94179.72
2022-11-09T23:43:46.191Z,94188.16
2022-11-09T23:46:15.328Z,94151.91
2022-11-09T23:48:41.872Z,94153.56
2022-11-09T23:51:09.105Z,94162.78
2022-11-09T23:53:36.466Z,94172.47
2022-11-09T23:56:05.979Z,94182.78
2022-11-09T23:58:32.781Z,94168.41
